Hartley, Kentucky
Current Conditions -  °F | °C
As of 10:55 AM on Tuesday 21 Oct 2014 (Local Time) from KPBX Reporting Station
Overcast Overcast  
Wind Chill: 52°   Ceiling: 700
Heat Index: 52°   Visibility: 10mi
Dew Point: 50°   Wind: 6mph
Humidity: 91%   Direction: 270°W
Pressure: 29.99"   Gusts: NA
Location:  37.3022°N, 82.6547°W
Report Text: KPBX 211455Z AUTO 27005KT 10SM BKN007 OVC011 11/10 A2999 RMK AO2 T01130099
Loading
Personal Weather Stations






























Interactive Weather Map
Tropical Storm Tracking
New forecast layout! Learn more

10-Day Weather Forecast

Advertisements
Track Severe Weather on mobile